createdAt,value
2022-08-09T00:00:04.529Z,102133.19
2022-08-09T00:02:47.325Z,102142.72
2022-08-09T00:06:18.015Z,102139.78
2022-08-09T00:08:04.058Z,102140.72
2022-08-09T00:10:37.200Z,102139.03
2022-08-09T00:13:06.658Z,102142.41
2022-08-09T00:15:58.066Z,102138.50
2022-08-09T00:18:28.866Z,102134.28
2022-08-09T00:20:55.578Z,102137.38
2022-08-09T00:23:55.083Z,102130.16
2022-08-09T00:26:11.136Z,102137.81
2022-08-09T00:28:38.523Z,102133.94
2022-08-09T00:31:30.250Z,102133.09
2022-08-09T00:33:53.399Z,102128.88
2022-08-09T00:36:20.479Z,102135.38
2022-08-09T00:38:50.648Z,102134.00
2022-08-09T00:44:09.817Z,102134.69
2022-08-09T00:44:24.739Z,102134.41
2022-08-09T00:46:57.457Z,102125.91
2022-08-09T00:49:32.996Z,102131.31
2022-08-09T00:52:05.111Z,102130.88
2022-08-09T00:54:36.313Z,102135.16
2022-08-09T00:57:08.782Z,102135.47
2022-08-09T00:59:41.230Z,102139.69
2022-08-09T01:02:18.863Z,102139.38
2022-08-09T01:05:13.647Z,102139.53
2022-08-09T01:08:08.904Z,102141.91
2022-08-09T01:11:08.381Z,102129.31
2022-08-09T01:14:01.805Z,102139.59
2022-08-09T01:16:39.230Z,102134.09
2022-08-09T01:19:39.683Z,102134.63
2022-08-09T01:22:33.827Z,102139.69
2022-08-09T01:25:19.322Z,102128.97
2022-08-09T01:27:52.756Z,102133.94
2022-08-09T01:30:28.538Z,102124.34
2022-08-09T01:33:05.471Z,102125.66
2022-08-09T01:35:44.614Z,102128.47
2022-08-09T01:38:16.122Z,102126.66
2022-08-09T01:40:53.012Z,102135.69
2022-08-09T01:43:32.414Z,102144.28
2022-08-09T01:46:18.238Z,102138.75
2022-08-09T01:48:52.821Z,102143.59
2022-08-09T01:51:22.665Z,102136.22
2022-08-09T01:53:53.810Z,102134.25
2022-08-09T01:56:27.061Z,102142.47
2022-08-09T01:58:55.410Z,102136.50
2022-08-09T02:01:57.938Z,102136.22
2022-08-09T02:04:12.709Z,102135.97
2022-08-09T02:07:02.561Z,102136.47
2022-08-09T02:09:42.683Z,102137.31
2022-08-09T02:12:18.092Z,102135.59
2022-08-09T02:14:51.702Z,102141.53
2022-08-09T02:17:59.499Z,102141.81
2022-08-09T02:20:08.730Z,102144.88
2022-08-09T02:22:40.540Z,102148.03
2022-08-09T02:25:26.269Z,102146.59
2022-08-09T02:28:04.146Z,102155.09
2022-08-09T02:30:39.354Z,102149.19
2022-08-09T02:33:14.088Z,102149.41
2022-08-09T02:36:01.475Z,102158.00
2022-08-09T02:38:32.101Z,102147.81
2022-08-09T02:41:13.259Z,102158.84
2022-08-09T02:43:54.537Z,102147.13
2022-08-09T02:46:27.649Z,102149.19
2022-08-09T02:48:58.815Z,102148.09
2022-08-09T02:51:27.733Z,102151.50
2022-08-09T02:54:02.931Z,102149.50
2022-08-09T02:56:34.233Z,102143.44
2022-08-09T02:59:05.635Z,102152.19
2022-08-09T03:01:58.611Z,102145.13
2022-08-09T03:04:26.266Z,102146.13
2022-08-09T03:06:57.009Z,102150.25
2022-08-09T03:09:26.706Z,102148.25
2022-08-09T03:12:09.836Z,102151.56
2022-08-09T03:14:39.592Z,102153.03
2022-08-09T03:17:08.268Z,102149.34
2022-08-09T03:19:59.063Z,102151.09
2022-08-09T03:22:31.242Z,102154.63
2022-08-09T03:25:06.387Z,102152.81
2022-08-09T03:27:48.913Z,102161.00
2022-08-09T03:30:29.799Z,102157.84
2022-08-09T03:33:05.556Z,102159.59
2022-08-09T03:36:11.562Z,102159.78
2022-08-09T03:38:28.864Z,102158.03
2022-08-09T03:40:57.847Z,102155.53
2022-08-09T03:43:24.281Z,102160.53
2022-08-09T03:46:04.514Z,102163.66
2022-08-09T03:48:42.880Z,102165.13
2022-08-09T03:51:56.332Z,102167.69
2022-08-09T03:54:06.612Z,102177.63
2022-08-09T03:56:37.791Z,102159.94
2022-08-09T03:59:17.028Z,102174.03
2022-08-09T04:01:49.105Z,102167.28
2022-08-09T04:04:16.892Z,102175.44
2022-08-09T04:06:48.765Z,102182.72
2022-08-09T04:09:47.824Z,102173.78
2022-08-09T04:12:11.902Z,102177.78
2022-08-09T04:15:00.507Z,102177.16
2022-08-09T04:17:27.154Z,102177.94
2022-08-09T04:19:56.450Z,102181.84
2022-08-09T04:22:23.225Z,102182.16
2022-08-09T04:24:49.719Z,102186.38
2022-08-09T04:27:17.439Z,102191.56
2022-08-09T04:29:49.556Z,102185.28
2022-08-09T04:32:16.683Z,102194.56
2022-08-09T04:34:58.068Z,102199.78
2022-08-09T04:37:45.369Z,102199.78
2022-08-09T04:40:28.490Z,102204.97
2022-08-09T04:43:00.644Z,102202.41
2022-08-09T04:45:30.469Z,102202.91
2022-08-09T04:48:04.063Z,102204.34
2022-08-09T04:50:34.895Z,102208.50
2022-08-09T04:53:13.359Z,102212.72
2022-08-09T04:55:57.950Z,102207.28
2022-08-09T04:58:27.152Z,102210.38
2022-08-09T05:00:54.215Z,102219.03
2022-08-09T05:03:40.142Z,102214.81
2022-08-09T05:06:08.373Z,102215.72
2022-08-09T05:08:35.140Z,102226.78
2022-08-09T05:11:02.760Z,102221.41
2022-08-09T05:13:33.150Z,102228.78
2022-08-09T05:16:00.288Z,102219.94
2022-08-09T05:18:37.956Z,102224.09
2022-08-09T05:21:24.383Z,102234.53
2022-08-09T05:23:59.832Z,102229.09
2022-08-09T05:26:37.414Z,102237.81
2022-08-09T05:29:21.581Z,102232.34
2022-08-09T05:31:57.312Z,102227.56
2022-08-09T05:34:30.712Z,102239.81
2022-08-09T05:37:01.858Z,102236.97
2022-08-09T05:39:36.447Z,102242.19
2022-08-09T05:42:17.677Z,102237.88
2022-08-09T05:44:50.653Z,102240.09
2022-08-09T05:47:18.244Z,102238.34
2022-08-09T05:50:30.732Z,102243.72
2022-08-09T05:52:31.794Z,102241.91
2022-08-09T05:55:03.190Z,102238.97
2022-08-09T05:57:55.861Z,102238.84
2022-08-09T06:00:25.528Z,102244.44
2022-08-09T06:02:54.263Z,102244.13
2022-08-09T06:05:50.257Z,102248.03
2022-08-09T06:08:11.005Z,102250.69
2022-08-09T06:10:38.094Z,102255.19
2022-08-09T06:13:18.689Z,102241.44
2022-08-09T06:15:46.713Z,102257.78
2022-08-09T06:18:14.065Z,102259.25
2022-08-09T06:20:42.777Z,102259.13
2022-08-09T06:23:11.990Z,102263.91
2022-08-09T06:25:42.046Z,102258.16
2022-08-09T06:28:10.252Z,102260.81
2022-08-09T06:30:40.424Z,102264.59
2022-08-09T06:33:30.010Z,102270.53
2022-08-09T06:35:58.254Z,102276.88
2022-08-09T06:38:32.665Z,102280.63
2022-08-09T06:41:04.589Z,102286.28
2022-08-09T06:43:39.713Z,102279.75
2022-08-09T06:46:10.894Z,102285.81
2022-08-09T06:48:37.610Z,102280.56
2022-08-09T06:51:10.711Z,102283.44
2022-08-09T06:53:38.866Z,102278.50
2022-08-09T06:56:07.935Z,102283.66
2022-08-09T07:00:48.711Z,102286.69
2022-08-09T07:01:24.214Z,102288.53
2022-08-09T07:03:57.851Z,102288.06
2022-08-09T07:06:30.302Z,102289.28
2022-08-09T07:08:56.744Z,102289.22
2022-08-09T07:11:25.215Z,102293.63
2022-08-09T07:14:04.967Z,102296.94
2022-08-09T07:16:42.092Z,102297.25
2022-08-09T07:19:23.243Z,102301.22
2022-08-09T07:21:57.803Z,102294.78
2022-08-09T07:24:32.836Z,102298.84
2022-08-09T07:27:10.912Z,102294.47
2022-08-09T07:29:57.014Z,102299.88
2022-08-09T07:32:32.030Z,102300.50
2022-08-09T07:35:12.025Z,102295.94
2022-08-09T07:37:43.258Z,102299.81
2022-08-09T07:40:13.602Z,102288.88
2022-08-09T07:42:55.581Z,102289.69
2022-08-09T07:45:40.344Z,102295.44
2022-08-09T07:48:25.742Z,102297.81
2022-08-09T07:51:09.207Z,102299.81
2022-08-09T07:54:05.619Z,102292.94
2022-08-09T07:56:36.851Z,102297.16
2022-08-09T07:59:12.353Z,102295.59
2022-08-09T08:01:39.716Z,102302.22
2022-08-09T08:04:10.601Z,102300.63
2022-08-09T08:06:37.461Z,102300.66
2022-08-09T08:09:39.765Z,102302.59
2022-08-09T08:12:28.247Z,102295.25
2022-08-09T08:14:55.426Z,102300.44
2022-08-09T08:17:24.763Z,102294.25
2022-08-09T08:20:12.953Z,102305.50
2022-08-09T08:22:40.222Z,102304.94
2022-08-09T08:25:13.256Z,102310.53
2022-08-09T08:27:41.211Z,102307.22
2022-08-09T08:30:11.059Z,102299.69
2022-08-09T08:32:41.568Z,102308.50
2022-08-09T08:35:19.799Z,102297.53
2022-08-09T08:37:59.861Z,102304.31
2022-08-09T08:40:33.089Z,102302.56
2022-08-09T08:43:02.000Z,102294.91
2022-08-09T08:45:43.308Z,102300.78
2022-08-09T08:48:19.517Z,102308.91
2022-08-09T08:50:49.395Z,102307.63
2022-08-09T08:53:21.906Z,102315.78
2022-08-09T08:55:48.871Z,102301.25
2022-08-09T08:58:27.178Z,102305.78
2022-08-09T09:00:57.043Z,102308.84
2022-08-09T09:03:33.100Z,102305.22
2022-08-09T09:06:05.562Z,102307.06
2022-08-09T09:08:40.444Z,102306.34
2022-08-09T09:11:13.933Z,102309.47
2022-08-09T09:13:57.556Z,102310.91
2022-08-09T09:16:32.176Z,102309.13
2022-08-09T09:22:11.778Z,102305.91
2022-08-09T09:24:45.852Z,102303.75
2022-08-09T09:27:47.245Z,102310.72
2022-08-09T09:30:19.302Z,102304.31
2022-08-09T09:33:14.408Z,102297.34
2022-08-09T09:36:03.938Z,102292.25
2022-08-09T09:38:44.620Z,102292.34
2022-08-09T09:41:28.002Z,102289.59
2022-08-09T09:44:12.266Z,102293.31
2022-08-09T09:46:51.489Z,102297.66
2022-08-09T09:49:31.913Z,102305.34
2022-08-09T09:52:16.766Z,102289.91
2022-08-09T09:55:27.592Z,102305.75
2022-08-09T09:58:18.996Z,102280.81
2022-08-09T10:00:54.045Z,102291.19
2022-08-09T10:03:42.690Z,102292.66
2022-08-09T10:06:09.987Z,102288.31
2022-08-09T10:08:43.329Z,102292.13
2022-08-09T10:12:00.743Z,102282.81
2022-08-09T10:14:33.026Z,102280.59
2022-08-09T10:17:38.917Z,102272.06
2022-08-09T10:19:57.065Z,102275.22
2022-08-09T10:22:39.033Z,102276.13
2022-08-09T10:25:11.827Z,102273.69
2022-08-09T10:27:57.057Z,102278.41
2022-08-09T10:34:04.895Z,102268.34
2022-08-09T10:36:09.708Z,102273.94
2022-08-09T10:38:56.140Z,102279.88
2022-08-09T10:41:24.760Z,102278.34
2022-08-09T10:43:59.405Z,102263.75
2022-08-09T10:46:54.260Z,102259.84
2022-08-09T10:49:50.978Z,102262.22
2022-08-09T10:52:45.846Z,102255.13
2022-08-09T10:55:28.869Z,102253.38
2022-08-09T10:58:45.029Z,102256.50
2022-08-09T11:03:13.131Z,102254.44
2022-08-09T11:04:30.345Z,102249.34
2022-08-09T11:07:00.234Z,102248.84
2022-08-09T11:09:41.362Z,102246.41
2022-08-09T11:12:30.512Z,102248.19
2022-08-09T11:15:24.133Z,102253.50
2022-08-09T11:18:02.637Z,102244.50
2022-08-09T11:20:42.167Z,102246.97
2022-08-09T11:23:10.678Z,102242.09
2022-08-09T11:25:46.087Z,102243.31
2022-08-09T11:28:56.382Z,102237.53
2022-08-09T11:31:43.115Z,102250.09
2022-08-09T11:34:17.709Z,102246.19
2022-08-09T11:36:45.400Z,102258.34
2022-08-09T11:39:12.044Z,102252.19
2022-08-09T11:41:40.690Z,102250.25
2022-08-09T11:44:08.243Z,102256.44
2022-08-09T11:46:57.738Z,102262.59
2022-08-09T11:50:56.054Z,102254.16
2022-08-09T11:53:15.750Z,102253.97
2022-08-09T11:55:52.872Z,102254.03
2022-08-09T11:58:30.350Z,102248.19
2022-08-09T12:01:37.316Z,102253.25
2022-08-09T12:04:00.779Z,102253.03
2022-08-09T12:06:32.118Z,102245.31
2022-08-09T12:09:05.681Z,102235.69
2022-08-09T12:11:37.927Z,102245.53
2022-08-09T12:14:28.592Z,102232.50
2022-08-09T12:16:58.234Z,102236.34
2022-08-09T12:19:30.117Z,102239.22
2022-08-09T12:22:01.785Z,102234.19
2022-08-09T12:24:29.809Z,102225.22
2022-08-09T12:29:14.480Z,102235.09
2022-08-09T12:30:01.458Z,102232.31
2022-08-09T12:32:41.405Z,102233.53
2022-08-09T12:35:12.482Z,102229.00
2022-08-09T12:37:50.462Z,102231.88
2022-08-09T12:40:22.995Z,102222.75
2022-08-09T12:42:50.552Z,102223.56
2022-08-09T12:45:33.796Z,102225.41
2022-08-09T12:48:03.303Z,102227.88
2022-08-09T12:50:30.356Z,102220.16
2022-08-09T12:53:09.309Z,102211.84
2022-08-09T12:56:15.639Z,102213.38
2022-08-09T12:58:29.700Z,102216.16
2022-08-09T13:00:57.620Z,102205.75
2022-08-09T13:03:56.968Z,102210.56
2022-08-09T13:06:34.551Z,102203.13
2022-08-09T13:09:09.960Z,102196.53
2022-08-09T13:11:42.272Z,102197.91
2022-08-09T13:14:40.807Z,102193.84
2022-08-09T13:17:01.106Z,102205.31
2022-08-09T13:20:07.270Z,102198.97
2022-08-09T13:22:36.907Z,102195.19
2022-08-09T13:25:07.663Z,102194.00
2022-08-09T13:27:54.823Z,102195.47
2022-08-09T13:30:49.287Z,102198.06
2022-08-09T13:33:17.076Z,102195.78
2022-08-09T13:36:24.500Z,102198.13
2022-08-09T13:38:57.315Z,102194.31
2022-08-09T13:41:55.587Z,102189.53
2022-08-09T13:44:13.743Z,102190.97
2022-08-09T13:47:24.323Z,102196.13
2022-08-09T13:49:37.891Z,102199.44
2022-08-09T13:52:08.942Z,102197.09
2022-08-09T13:54:35.817Z,102197.09
2022-08-09T13:57:08.505Z,102192.09
2022-08-09T13:59:41.967Z,102193.66
2022-08-09T14:02:08.793Z,102190.84
2022-08-09T14:04:36.563Z,102188.47
2022-08-09T14:07:04.223Z,102180.34
2022-08-09T14:09:34.646Z,102180.66
2022-08-09T14:12:06.900Z,102176.94
2022-08-09T14:14:43.871Z,102173.56
2022-08-09T14:17:12.131Z,102174.06
2022-08-09T14:19:39.124Z,102173.41
2022-08-09T14:22:07.092Z,102164.28
2022-08-09T14:24:35.628Z,102168.00
2022-08-09T14:27:02.371Z,102175.31
2022-08-09T14:30:35.577Z,102176.19
2022-08-09T14:32:19.717Z,102164.66
2022-08-09T14:34:55.616Z,102169.53
2022-08-09T14:37:28.160Z,102183.66
2022-08-09T14:39:55.161Z,102176.06
2022-08-09T14:42:31.827Z,102173.47
2022-08-09T14:46:40.436Z,102179.16
2022-08-09T14:47:57.322Z,102167.50
2022-08-09T14:50:25.939Z,102178.31
2022-08-09T14:52:53.498Z,102180.16
2022-08-09T14:55:21.204Z,102175.94
2022-08-09T14:57:48.885Z,102172.53
2022-08-09T15:00:15.813Z,102172.13
2022-08-09T15:02:42.239Z,102175.31
2022-08-09T15:05:10.419Z,102179.28
2022-08-09T15:07:37.014Z,102170.22
2022-08-09T15:10:10.695Z,102178.47
2022-08-09T15:12:40.440Z,102166.16
2022-08-09T15:15:11.687Z,102171.97
2022-08-09T15:17:42.096Z,102170.22
2022-08-09T15:20:15.315Z,102179.28
2022-08-09T15:23:03.293Z,102170.88
2022-08-09T15:25:46.260Z,102174.53
2022-08-09T15:28:24.121Z,102162.81
2022-08-09T15:31:00.366Z,102163.81
2022-08-09T15:34:04.402Z,102166.97
2022-08-09T15:36:17.762Z,102159.34
2022-08-09T15:38:44.551Z,102165.84
2022-08-09T15:41:12.073Z,102157.13
2022-08-09T15:43:48.825Z,102155.47
2022-08-09T15:46:33.041Z,102146.19
2022-08-09T15:49:22.625Z,102151.63
2022-08-09T15:52:05.246Z,102150.59
2022-08-09T15:54:50.466Z,102154.16
2022-08-09T15:57:34.281Z,102155.69
2022-08-09T16:00:24.493Z,102161.88
2022-08-09T16:02:57.538Z,102159.97
2022-08-09T16:05:47.123Z,102153.47
2022-08-09T16:08:31.048Z,102153.38
2022-08-09T16:11:02.122Z,102150.03
2022-08-09T16:14:03.807Z,102152.38
2022-08-09T16:16:17.495Z,102155.44
2022-08-09T16:18:45.669Z,102147.91
2022-08-09T16:21:17.224Z,102154.22
2022-08-09T16:23:55.422Z,102140.13
2022-08-09T16:26:34.578Z,102144.19
2022-08-09T16:29:11.650Z,102142.16
2022-08-09T16:32:19.293Z,102148.38
2022-08-09T16:34:55.325Z,102142.97
2022-08-09T16:37:50.587Z,102146.50
2022-08-09T16:40:08.010Z,102135.84
2022-08-09T16:42:36.122Z,102139.22
2022-08-09T16:45:05.132Z,102139.41
2022-08-09T16:48:41.445Z,102135.00
2022-08-09T16:50:32.660Z,102135.41
2022-08-09T16:53:00.923Z,102135.97
2022-08-09T16:55:31.562Z,102139.22
2022-08-09T16:58:16.599Z,102138.81
2022-08-09T17:00:43.349Z,102138.13
2022-08-09T17:03:20.895Z,102142.81
2022-08-09T17:06:07.398Z,102143.91
2022-08-09T17:08:45.077Z,102150.03
2022-08-09T17:11:24.642Z,102142.84
2022-08-09T17:14:08.434Z,102157.59
2022-08-09T17:16:51.998Z,102150.94
2022-08-09T17:19:18.455Z,102152.16
2022-08-09T17:21:47.471Z,102156.38
2022-08-09T17:24:20.708Z,102161.16
2022-08-09T17:26:55.081Z,102151.88
2022-08-09T17:29:21.626Z,102166.22
2022-08-09T17:31:49.202Z,102158.13
2022-08-09T17:35:00.869Z,102159.94
2022-08-09T17:37:02.526Z,102167.56
2022-08-09T17:39:52.822Z,102175.00
2022-08-09T17:42:41.589Z,102170.94
2022-08-09T17:45:03.736Z,102171.38
2022-08-09T17:47:33.023Z,102173.41
2022-08-09T17:50:17.239Z,102173.03
2022-08-09T17:53:04.669Z,102176.59
2022-08-09T17:55:48.706Z,102177.53
2022-08-09T17:58:18.868Z,102174.44
2022-08-09T18:00:47.915Z,102178.03
2022-08-09T18:03:17.685Z,102179.69
2022-08-09T18:05:45.356Z,102185.41
2022-08-09T18:08:19.627Z,102180.19
2022-08-09T18:11:02.067Z,102185.69
2022-08-09T18:13:39.999Z,102188.19
2022-08-09T18:16:16.961Z,102190.09
2022-08-09T18:18:56.194Z,102192.59
2022-08-09T18:21:24.257Z,102190.31
2022-08-09T18:24:10.174Z,102199.13
2022-08-09T18:26:38.889Z,102197.34
2022-08-09T18:30:42.268Z,102200.78
2022-08-09T18:32:00.504Z,102205.19
2022-08-09T18:34:31.470Z,102202.25
2022-08-09T18:36:58.374Z,102202.34
2022-08-09T18:39:25.735Z,102195.91
2022-08-09T18:42:01.002Z,102207.53
2022-08-09T18:44:27.779Z,102207.06
2022-08-09T18:47:07.465Z,102210.31
2022-08-09T18:49:41.549Z,102208.47
2022-08-09T18:52:11.690Z,102211.91
2022-08-09T18:54:38.693Z,102213.13
2022-08-09T18:57:06.791Z,102219.16
2022-08-09T18:59:49.133Z,102222.59
2022-08-09T19:02:19.153Z,102224.75
2022-08-09T19:04:48.067Z,102227.44
2022-08-09T19:07:32.718Z,102235.38
2022-08-09T19:10:16.727Z,102236.59
2022-08-09T19:12:45.650Z,102241.16
2022-08-09T19:15:26.864Z,102246.28
2022-08-09T19:17:56.515Z,102241.91
2022-08-09T19:20:25.037Z,102250.03
2022-08-09T19:22:54.832Z,102247.50
2022-08-09T19:25:41.233Z,102247.50
2022-08-09T19:28:13.494Z,102237.28
2022-08-09T19:30:44.288Z,102239.94
2022-08-09T19:33:19.317Z,102254.44
2022-08-09T19:35:58.127Z,102254.78
2022-08-09T19:38:26.331Z,102256.28
2022-08-09T19:40:53.870Z,102261.88
2022-08-09T19:43:58.161Z,102253.81
2022-08-09T19:46:08.548Z,102261.19
2022-08-09T19:49:00.065Z,102252.78
2022-08-09T19:51:27.872Z,102257.81
2022-08-09T19:53:58.442Z,102269.25
2022-08-09T19:56:28.574Z,102255.78
2022-08-09T19:59:18.478Z,102251.75
2022-08-09T20:01:52.546Z,102264.19
2022-08-09T20:04:37.120Z,102266.03
2022-08-09T20:07:12.432Z,102272.56
2022-08-09T20:09:47.633Z,102273.25
2022-08-09T20:12:16.218Z,102268.19
2022-08-09T20:14:56.755Z,102280.38
2022-08-09T20:17:23.250Z,102278.63
2022-08-09T20:19:54.680Z,102276.25
2022-08-09T20:22:21.488Z,102285.16
2022-08-09T20:24:58.514Z,102288.00
2022-08-09T20:27:29.260Z,102283.63
2022-08-09T20:29:57.197Z,102279.88
2022-08-09T20:32:33.438Z,102274.91
2022-08-09T20:35:01.738Z,102277.97
2022-08-09T20:38:20.415Z,102277.97
2022-08-09T20:40:26.358Z,102281.16
2022-08-09T20:43:12.140Z,102278.25
2022-08-09T20:46:00.402Z,102280.59
2022-08-09T20:48:28.986Z,102281.44
2022-08-09T20:50:58.513Z,102282.59
2022-08-09T20:53:37.201Z,102285.41
2022-08-09T20:56:20.807Z,102286.63
2022-08-09T20:58:54.438Z,102289.94
2022-08-09T21:01:35.508Z,102289.84
2022-08-09T21:05:54.548Z,102295.66
2022-08-09T21:06:58.057Z,102301.91
2022-08-09T21:09:42.110Z,102297.25
2022-08-09T21:14:46.148Z,102294.81
2022-08-09T21:18:20.823Z,102298.84
2022-08-09T21:20:17.183Z,102300.25
2022-08-09T21:22:54.314Z,102304.34
2022-08-09T21:25:43.991Z,102306.91
2022-08-09T21:28:34.529Z,102303.31
2022-08-09T21:31:16.563Z,102303.59
2022-08-09T21:33:50.393Z,102311.75
2022-08-09T21:36:18.990Z,102309.22
2022-08-09T21:38:45.538Z,102309.94
2022-08-09T21:41:17.768Z,102314.78
2022-08-09T21:43:56.793Z,102311.53
2022-08-09T21:46:24.771Z,102306.56
2022-08-09T21:48:52.156Z,102308.25
2022-08-09T21:51:24.246Z,102306.34
2022-08-09T21:54:02.534Z,102311.13
2022-08-09T21:56:43.092Z,102307.38
2022-08-09T21:59:16.172Z,102313.06
2022-08-09T22:01:58.600Z,102322.44
2022-08-09T22:04:54.989Z,102319.78
2022-08-09T22:07:14.372Z,102313.78
2022-08-09T22:10:00.116Z,102313.66
2022-08-09T22:12:31.254Z,102326.84
2022-08-09T22:14:58.482Z,102314.38
2022-08-09T22:17:24.903Z,102315.66
2022-08-09T22:19:59.304Z,102317.03
2022-08-09T22:22:28.310Z,102319.22
2022-08-09T22:26:03.969Z,102316.72
2022-08-09T22:27:41.171Z,102315.00
2022-08-09T22:30:09.575Z,102316.66
2022-08-09T22:32:36.026Z,102310.59
2022-08-09T22:35:06.125Z,102307.34
2022-08-09T22:37:39.969Z,102311.66
2022-08-09T22:40:08.358Z,102322.16
2022-08-09T22:42:34.940Z,102311.66
2022-08-09T22:48:06.196Z,102320.25
2022-08-09T22:48:12.118Z,102323.06
2022-08-09T22:50:34.493Z,102327.66
2022-08-09T22:53:03.520Z,102335.03
2022-08-09T22:56:05.811Z,102326.50
2022-08-09T22:58:30.496Z,102327.22
2022-08-09T23:00:59.785Z,102331.03
2022-08-09T23:04:02.704Z,102334.03
2022-08-09T23:06:14.036Z,102329.09
2022-08-09T23:08:47.007Z,102333.31
2022-08-09T23:11:15.769Z,102337.81
2022-08-09T23:13:44.490Z,102334.56
2022-08-09T23:16:13.111Z,102334.63
2022-08-09T23:18:40.537Z,102327.50
2022-08-09T23:21:08.301Z,102337.19
2022-08-09T23:23:35.247Z,102329.34
2022-08-09T23:26:02.057Z,102334.34
2022-08-09T23:28:28.676Z,102334.41
2022-08-09T23:30:55.165Z,102330.50
2022-08-09T23:33:22.757Z,102329.28
2022-08-09T23:36:06.241Z,102319.13
2022-08-09T23:38:33.743Z,102328.91
2022-08-09T23:41:01.207Z,102321.88
2022-08-09T23:43:27.671Z,102331.34
2022-08-09T23:45:54.118Z,102317.00
2022-08-09T23:48:20.568Z,102334.72
2022-08-09T23:50:47.032Z,102334.78
2022-08-09T23:53:13.838Z,102335.03
2022-08-09T23:55:40.531Z,102334.06
2022-08-09T23:58:25.997Z,102333.84
